sensor_id;sensor_type;location;lat;lon;timestamp;P1;durP1;ratioP1;P2;durP2;ratioP2
74487;SDS011;63019;51.080;13.642;2023-05-29T00:00:18;3.58;;;2.33;;
74487;SDS011;63019;51.080;13.642;2023-05-29T00:01:21;5.85;;;2.70;;
74487;SDS011;63019;51.080;13.642;2023-05-29T00:02:25;7.15;;;2.40;;
74487;SDS011;63019;51.080;13.642;2023-05-29T00:03:27;4.40;;;2.38;;
74487;SDS011;63019;51.080;13.642;2023-05-29T00:04:30;7.07;;;2.63;;
74487;SDS011;63019;51.080;13.642;2023-05-29T00:05:32;7.60;;;2.85;;
74487;SDS011;63019;51.080;13.642;2023-05-29T00:06:33;7.10;;;2.53;;
74487;SDS011;63019;51.080;13.642;2023-05-29T00:07:37;6.03;;;2.40;;
74487;SDS011;63019;51.080;13.642;2023-05-29T00:08:39;5.32;;;2.30;;
74487;SDS011;63019;51.080;13.642;2023-05-29T00:09:41;4.78;;;2.40;;
74487;SDS011;63019;51.080;13.642;2023-05-29T00:10:43;8.38;;;2.53;;
74487;SDS011;63019;51.080;13.642;2023-05-29T00:11:44;7.72;;;2.30;;
74487;SDS011;63019;51.080;13.642;2023-05-29T00:12:51;7.45;;;2.72;;
74487;SDS011;63019;51.080;13.642;2023-05-29T00:13:53;7.97;;;2.58;;
74487;SDS011;63019;51.080;13.642;2023-05-29T00:14:55;5.50;;;2.33;;
74487;SDS011;63019;51.080;13.642;2023-05-29T00:15:58;5.05;;;2.20;;
74487;SDS011;63019;51.080;13.642;2023-05-29T00:17:01;5.47;;;2.42;;
74487;SDS011;63019;51.080;13.642;2023-05-29T00:18:04;5.18;;;2.05;;
74487;SDS011;63019;51.080;13.642;2023-05-29T00:19:06;9.98;;;2.45;;
74487;SDS011;63019;51.080;13.642;2023-05-29T00:20:10;5.18;;;2.13;;
74487;SDS011;63019;51.080;13.642;2023-05-29T00:21:15;8.35;;;2.70;;
74487;SDS011;63019;51.080;13.642;2023-05-29T00:22:17;7.78;;;2.72;;
74487;SDS011;63019;51.080;13.642;2023-05-29T00:23:20;4.65;;;2.03;;
74487;SDS011;63019;51.080;13.642;2023-05-29T00:24:23;6.07;;;2.30;;
74487;SDS011;63019;51.080;13.642;2023-05-29T00:25:24;7.50;;;2.40;;
74487;SDS011;63019;51.080;13.642;2023-05-29T00:26:26;5.43;;;2.60;;
74487;SDS011;63019;51.080;13.642;2023-05-29T00:27:28;11.27;;;2.47;;
74487;SDS011;63019;51.080;13.642;2023-05-29T00:28:30;11.80;;;2.65;;
74487;SDS011;63019;51.080;13.642;2023-05-29T00:29:32;7.25;;;2.42;;
74487;SDS011;63019;51.080;13.642;2023-05-29T00:30:33;9.93;;;2.40;;
74487;SDS011;63019;51.080;13.642;2023-05-29T00:31:35;8.70;;;2.25;;
74487;SDS011;63019;51.080;13.642;2023-05-29T00:32:37;6.53;;;2.20;;
74487;SDS011;63019;51.080;13.642;2023-05-29T00:33:39;4.32;;;2.00;;
74487;SDS011;63019;51.080;13.642;2023-05-29T00:34:41;6.40;;;2.42;;
74487;SDS011;63019;51.080;13.642;2023-05-29T00:35:43;8.30;;;2.30;;
74487;SDS011;63019;51.080;13.642;2023-05-29T00:36:45;5.95;;;2.15;;
74487;SDS011;63019;51.080;13.642;2023-05-29T00:37:47;8.80;;;2.40;;
74487;SDS011;63019;51.080;13.642;2023-05-29T00:38:49;5.60;;;2.10;;
74487;SDS011;63019;51.080;13.642;2023-05-29T00:39:51;7.95;;;2.20;;
74487;SDS011;63019;51.080;13.642;2023-05-29T00:40:53;5.82;;;2.22;;
74487;SDS011;63019;51.080;13.642;2023-05-29T00:41:55;7.00;;;2.60;;
74487;SDS011;63019;51.080;13.642;2023-05-29T00:42:57;8.02;;;2.50;;
74487;SDS011;63019;51.080;13.642;2023-05-29T00:43:59;4.68;;;2.53;;
74487;SDS011;63019;51.080;13.642;2023-05-29T00:45:01;8.50;;;2.83;;
74487;SDS011;63019;51.080;13.642;2023-05-29T00:46:03;5.50;;;2.27;;
74487;SDS011;63019;51.080;13.642;2023-05-29T00:47:05;3.80;;;2.30;;
74487;SDS011;63019;51.080;13.642;2023-05-29T00:48:07;7.47;;;2.28;;
74487;SDS011;63019;51.080;13.642;2023-05-29T00:49:09;5.00;;;2.45;;
74487;SDS011;63019;51.080;13.642;2023-05-29T00:50:12;6.00;;;2.20;;
74487;SDS011;63019;51.080;13.642;2023-05-29T00:51:15;4.78;;;2.03;;
74487;SDS011;63019;51.080;13.642;2023-05-29T00:52:18;4.80;;;2.00;;
74487;SDS011;63019;51.080;13.642;2023-05-29T00:53:21;5.00;;;2.08;;
74487;SDS011;63019;51.080;13.642;2023-05-29T00:54:26;5.28;;;2.30;;
74487;SDS011;63019;51.080;13.642;2023-05-29T00:55:30;6.50;;;2.33;;
74487;SDS011;63019;51.080;13.642;2023-05-29T00:56:33;6.50;;;2.13;;
74487;SDS011;63019;51.080;13.642;2023-05-29T00:57:36;6.13;;;2.50;;
74487;SDS011;63019;51.080;13.642;2023-05-29T00:58:41;6.95;;;3.38;;
74487;SDS011;63019;51.080;13.642;2023-05-29T00:59:43;9.50;;;3.92;;
74487;SDS011;63019;51.080;13.642;2023-05-29T01:00:47;12.30;;;4.13;;
74487;SDS011;63019;51.080;13.642;2023-05-29T01:01:49;9.98;;;4.30;;
74487;SDS011;63019;51.080;13.642;2023-05-29T01:02:52;7.05;;;3.10;;
74487;SDS011;63019;51.080;13.642;2023-05-29T01:03:55;6.80;;;2.55;;
74487;SDS011;63019;51.080;13.642;2023-05-29T01:04:58;7.55;;;2.80;;
74487;SDS011;63019;51.080;13.642;2023-05-29T01:06:01;9.52;;;3.33;;
74487;SDS011;63019;51.080;13.642;2023-05-29T01:07:04;11.67;;;2.90;;
74487;SDS011;63019;51.080;13.642;2023-05-29T01:08:08;12.40;;;3.70;;
74487;SDS011;63019;51.080;13.642;2023-05-29T01:09:11;7.68;;;2.75;;
74487;SDS011;63019;51.080;13.642;2023-05-29T01:10:14;7.40;;;2.90;;
74487;SDS011;63019;51.080;13.642;2023-05-29T01:13:11;7.85;;;2.92;;
74487;SDS011;63019;51.080;13.642;2023-05-29T01:14:05;11.35;;;3.10;;
74487;SDS011;63019;51.080;13.642;2023-05-29T01:15:16;7.75;;;2.55;;
74487;SDS011;63019;51.080;13.642;2023-05-29T01:16:28;7.45;;;2.60;;
74487;SDS011;63019;51.080;13.642;2023-05-29T01:18:59;5.53;;;2.23;;
74487;SDS011;63019;51.080;13.642;2023-05-29T01:24:17;4.78;;;2.20;;
74487;SDS011;63019;51.080;13.642;2023-05-29T01:27:00;9.90;;;2.33;;
74487;SDS011;63019;51.080;13.642;2023-05-29T01:28:05;7.97;;;2.40;;
74487;SDS011;63019;51.080;13.642;2023-05-29T01:29:12;8.27;;;2.70;;
74487;SDS011;63019;51.080;13.642;2023-05-29T01:30:16;5.07;;;2.35;;
74487;SDS011;63019;51.080;13.642;2023-05-29T01:31:20;5.63;;;2.50;;
74487;SDS011;63019;51.080;13.642;2023-05-29T01:32:25;5.28;;;2.58;;
74487;SDS011;63019;51.080;13.642;2023-05-29T01:33:27;8.50;;;2.35;;
74487;SDS011;63019;51.080;13.642;2023-05-29T01:34:29;10.10;;;2.33;;
74487;SDS011;63019;51.080;13.642;2023-05-29T01:35:32;6.43;;;2.72;;
74487;SDS011;63019;51.080;13.642;2023-05-29T01:36:34;5.50;;;2.15;;
74487;SDS011;63019;51.080;13.642;2023-05-29T01:37:36;5.03;;;2.40;;
74487;SDS011;63019;51.080;13.642;2023-05-29T01:38:38;7.80;;;2.70;;
74487;SDS011;63019;51.080;13.642;2023-05-29T01:39:40;8.02;;;2.20;;
74487;SDS011;63019;51.080;13.642;2023-05-29T01:40:42;11.05;;;2.75;;
74487;SDS011;63019;51.080;13.642;2023-05-29T01:41:44;6.37;;;2.40;;
74487;SDS011;63019;51.080;13.642;2023-05-29T01:42:47;6.88;;;2.63;;
74487;SDS011;63019;51.080;13.642;2023-05-29T01:43:50;8.73;;;3.05;;
74487;SDS011;63019;51.080;13.642;2023-05-29T01:44:52;6.07;;;2.50;;
74487;SDS011;63019;51.080;13.642;2023-05-29T01:45:55;10.93;;;2.90;;
74487;SDS011;63019;51.080;13.642;2023-05-29T01:46:57;5.53;;;2.50;;
74487;SDS011;63019;51.080;13.642;2023-05-29T01:47:59;9.70;;;2.60;;
74487;SDS011;63019;51.080;13.642;2023-05-29T01:49:01;11.32;;;4.35;;
74487;SDS011;63019;51.080;13.642;2023-05-29T01:50:04;6.50;;;2.75;;
74487;SDS011;63019;51.080;13.642;2023-05-29T01:51:07;4.47;;;2.40;;
74487;SDS011;63019;51.080;13.642;2023-05-29T01:52:09;6.10;;;2.70;;
74487;SDS011;63019;51.080;13.642;2023-05-29T01:53:12;5.53;;;2.40;;
74487;SDS011;63019;51.080;13.642;2023-05-29T01:54:14;5.15;;;2.30;;
74487;SDS011;63019;51.080;13.642;2023-05-29T01:55:16;7.50;;;2.75;;
74487;SDS011;63019;51.080;13.642;2023-05-29T01:56:18;5.53;;;2.22;;
74487;SDS011;63019;51.080;13.642;2023-05-29T01:57:21;8.23;;;2.28;;
74487;SDS011;63019;51.080;13.642;2023-05-29T01:58:23;6.22;;;2.40;;
74487;SDS011;63019;51.080;13.642;2023-05-29T01:59:26;7.03;;;2.45;;
74487;SDS011;63019;51.080;13.642;2023-05-29T02:00:29;6.72;;;2.65;;
74487;SDS011;63019;51.080;13.642;2023-05-29T02:01:31;7.63;;;2.30;;
74487;SDS011;63019;51.080;13.642;2023-05-29T02:02:37;6.20;;;2.57;;
74487;SDS011;63019;51.080;13.642;2023-05-29T02:03:40;7.32;;;2.83;;
74487;SDS011;63019;51.080;13.642;2023-05-29T02:04:41;7.20;;;2.75;;
74487;SDS011;63019;51.080;13.642;2023-05-29T02:05:43;11.80;;;3.22;;
74487;SDS011;63019;51.080;13.642;2023-05-29T02:06:45;7.68;;;3.20;;
74487;SDS011;63019;51.080;13.642;2023-05-29T02:07:47;8.40;;;3.20;;
74487;SDS011;63019;51.080;13.642;2023-05-29T02:08:49;6.88;;;2.90;;
74487;SDS011;63019;51.080;13.642;2023-05-29T02:09:51;8.77;;;3.08;;
74487;SDS011;63019;51.080;13.642;2023-05-29T02:10:53;6.93;;;2.88;;
74487;SDS011;63019;51.080;13.642;2023-05-29T02:11:55;6.20;;;2.63;;
74487;SDS011;63019;51.080;13.642;2023-05-29T02:12:57;12.77;;;3.30;;
74487;SDS011;63019;51.080;13.642;2023-05-29T02:13:59;9.10;;;3.45;;
74487;SDS011;63019;51.080;13.642;2023-05-29T02:15:04;8.23;;;3.22;;
74487;SDS011;63019;51.080;13.642;2023-05-29T02:16:07;9.55;;;3.55;;
74487;SDS011;63019;51.080;13.642;2023-05-29T02:17:09;8.38;;;3.83;;
74487;SDS011;63019;51.080;13.642;2023-05-29T02:18:13;9.23;;;4.07;;
74487;SDS011;63019;51.080;13.642;2023-05-29T02:19:17;11.00;;;3.70;;
74487;SDS011;63019;51.080;13.642;2023-05-29T02:20:19;13.35;;;3.83;;
74487;SDS011;63019;51.080;13.642;2023-05-29T02:21:22;8.30;;;3.42;;
74487;SDS011;63019;51.080;13.642;2023-05-29T02:22:23;11.05;;;3.22;;
74487;SDS011;63019;51.080;13.642;2023-05-29T02:23:25;5.10;;;2.63;;
74487;SDS011;63019;51.080;13.642;2023-05-29T02:24:27;5.70;;;3.00;;
74487;SDS011;63019;51.080;13.642;2023-05-29T02:25:29;9.68;;;3.10;;
74487;SDS011;63019;51.080;13.642;2023-05-29T02:26:31;7.25;;;2.83;;
74487;SDS011;63019;51.080;13.642;2023-05-29T02:27:33;6.72;;;2.70;;
74487;SDS011;63019;51.080;13.642;2023-05-29T02:28:35;7.18;;;3.33;;
74487;SDS011;63019;51.080;13.642;2023-05-29T02:29:37;10.38;;;2.45;;
74487;SDS011;63019;51.080;13.642;2023-05-29T02:30:39;5.50;;;2.58;;
74487;SDS011;63019;51.080;13.642;2023-05-29T02:31:41;6.05;;;2.60;;
74487;SDS011;63019;51.080;13.642;2023-05-29T02:32:43;7.07;;;3.03;;
74487;SDS011;63019;51.080;13.642;2023-05-29T02:33:44;10.40;;;2.87;;
74487;SDS011;63019;51.080;13.642;2023-05-29T02:34:46;5.70;;;2.65;;
74487;SDS011;63019;51.080;13.642;2023-05-29T02:35:48;7.00;;;2.50;;
74487;SDS011;63019;51.080;13.642;2023-05-29T02:36:50;5.95;;;2.50;;
74487;SDS011;63019;51.080;13.642;2023-05-29T02:37:55;10.68;;;2.65;;
74487;SDS011;63019;51.080;13.642;2023-05-29T02:38:57;7.90;;;2.53;;
74487;SDS011;63019;51.080;13.642;2023-05-29T02:39:59;9.30;;;2.72;;
74487;SDS011;63019;51.080;13.642;2023-05-29T02:41:01;5.90;;;2.88;;
74487;SDS011;63019;51.080;13.642;2023-05-29T02:42:03;7.85;;;3.10;;
74487;SDS011;63019;51.080;13.642;2023-05-29T02:43:05;6.72;;;2.80;;
74487;SDS011;63019;51.080;13.642;2023-05-29T02:44:07;5.07;;;2.50;;
74487;SDS011;63019;51.080;13.642;2023-05-29T02:45:09;6.40;;;2.72;;
74487;SDS011;63019;51.080;13.642;2023-05-29T02:46:11;6.35;;;2.63;;
74487;SDS011;63019;51.080;13.642;2023-05-29T02:47:13;5.63;;;2.70;;
74487;SDS011;63019;51.080;13.642;2023-05-29T02:48:15;7.50;;;2.70;;
74487;SDS011;63019;51.080;13.642;2023-05-29T02:49:17;7.55;;;3.00;;
74487;SDS011;63019;51.080;13.642;2023-05-29T02:50:18;8.02;;;2.97;;
74487;SDS011;63019;51.080;13.642;2023-05-29T02:51:20;11.40;;;3.05;;
74487;SDS011;63019;51.080;13.642;2023-05-29T02:52:22;6.32;;;3.05;;
74487;SDS011;63019;51.080;13.642;2023-05-29T02:53:24;5.40;;;2.50;;
74487;SDS011;63019;51.080;13.642;2023-05-29T02:54:26;7.90;;;2.83;;
74487;SDS011;63019;51.080;13.642;2023-05-29T02:55:28;7.75;;;2.63;;
74487;SDS011;63019;51.080;13.642;2023-05-29T02:56:33;5.65;;;2.38;;
74487;SDS011;63019;51.080;13.642;2023-05-29T02:57:35;6.40;;;2.53;;
74487;SDS011;63019;51.080;13.642;2023-05-29T02:58:37;9.40;;;2.53;;
74487;SDS011;63019;51.080;13.642;2023-05-29T02:59:39;10.65;;;2.45;;
74487;SDS011;63019;51.080;13.642;2023-05-29T03:00:42;5.35;;;2.45;;
74487;SDS011;63019;51.080;13.642;2023-05-29T03:01:44;4.90;;;2.40;;
74487;SDS011;63019;51.080;13.642;2023-05-29T03:02:47;5.35;;;2.40;;
74487;SDS011;63019;51.080;13.642;2023-05-29T03:03:49;5.25;;;2.25;;
74487;SDS011;63019;51.080;13.642;2023-05-29T03:04:51;6.80;;;2.70;;
74487;SDS011;63019;51.080;13.642;2023-05-29T03:05:54;5.22;;;2.40;;
74487;SDS011;63019;51.080;13.642;2023-05-29T03:06:56;4.53;;;2.42;;
74487;SDS011;63019;51.080;13.642;2023-05-29T03:07:58;3.50;;;2.15;;
74487;SDS011;63019;51.080;13.642;2023-05-29T03:09:00;8.00;;;2.30;;
74487;SDS011;63019;51.080;13.642;2023-05-29T03:10:02;5.00;;;2.17;;
74487;SDS011;63019;51.080;13.642;2023-05-29T03:11:07;7.45;;;2.38;;
74487;SDS011;63019;51.080;13.642;2023-05-29T03:12:12;7.78;;;2.60;;
74487;SDS011;63019;51.080;13.642;2023-05-29T03:13:13;5.40;;;2.30;;
74487;SDS011;63019;51.080;13.642;2023-05-29T03:14:16;4.93;;;2.45;;
74487;SDS011;63019;51.080;13.642;2023-05-29T03:15:18;5.93;;;2.70;;
74487;SDS011;63019;51.080;13.642;2023-05-29T03:16:21;6.68;;;2.72;;
74487;SDS011;63019;51.080;13.642;2023-05-29T03:17:23;6.00;;;2.40;;
74487;SDS011;63019;51.080;13.642;2023-05-29T03:18:25;4.57;;;2.25;;
74487;SDS011;63019;51.080;13.642;2023-05-29T03:19:27;5.03;;;2.50;;
74487;SDS011;63019;51.080;13.642;2023-05-29T03:20:29;6.90;;;2.72;;
74487;SDS011;63019;51.080;13.642;2023-05-29T03:21:31;5.10;;;2.63;;
74487;SDS011;63019;51.080;13.642;2023-05-29T03:22:34;5.38;;;2.53;;
74487;SDS011;63019;51.080;13.642;2023-05-29T03:23:36;5.13;;;2.63;;
74487;SDS011;63019;51.080;13.642;2023-05-29T03:24:38;9.80;;;3.13;;
74487;SDS011;63019;51.080;13.642;2023-05-29T03:25:40;7.77;;;2.57;;
74487;SDS011;63019;51.080;13.642;2023-05-29T03:26:42;7.65;;;3.38;;
74487;SDS011;63019;51.080;13.642;2023-05-29T03:27:44;8.45;;;3.05;;
74487;SDS011;63019;51.080;13.642;2023-05-29T03:28:45;7.43;;;2.88;;
74487;SDS011;63019;51.080;13.642;2023-05-29T03:29:47;6.10;;;2.80;;
74487;SDS011;63019;51.080;13.642;2023-05-29T03:30:49;10.32;;;3.03;;
74487;SDS011;63019;51.080;13.642;2023-05-29T03:31:51;7.10;;;3.00;;
74487;SDS011;63019;51.080;13.642;2023-05-29T03:32:53;5.18;;;2.90;;
74487;SDS011;63019;51.080;13.642;2023-05-29T03:33:55;10.23;;;3.30;;
74487;SDS011;63019;51.080;13.642;2023-05-29T03:34:56;7.13;;;3.15;;
74487;SDS011;63019;51.080;13.642;2023-05-29T03:35:58;6.07;;;3.07;;
74487;SDS011;63019;51.080;13.642;2023-05-29T03:37:00;9.15;;;3.10;;
74487;SDS011;63019;51.080;13.642;2023-05-29T03:38:03;6.20;;;3.10;;
74487;SDS011;63019;51.080;13.642;2023-05-29T03:39:05;5.78;;;3.10;;
74487;SDS011;63019;51.080;13.642;2023-05-29T03:40:07;6.47;;;3.33;;
74487;SDS011;63019;51.080;13.642;2023-05-29T03:41:10;7.60;;;3.03;;
74487;SDS011;63019;51.080;13.642;2023-05-29T03:42:12;10.10;;;3.58;;
74487;SDS011;63019;51.080;13.642;2023-05-29T03:43:14;7.05;;;3.42;;
74487;SDS011;63019;51.080;13.642;2023-05-29T03:44:16;6.78;;;3.50;;
74487;SDS011;63019;51.080;13.642;2023-05-29T03:45:18;8.80;;;3.65;;
74487;SDS011;63019;51.080;13.642;2023-05-29T03:46:20;9.03;;;3.50;;
74487;SDS011;63019;51.080;13.642;2023-05-29T03:47:22;5.57;;;3.00;;
74487;SDS011;63019;51.080;13.642;2023-05-29T03:48:24;6.03;;;3.10;;
74487;SDS011;63019;51.080;13.642;2023-05-29T03:49:26;6.43;;;3.30;;
74487;SDS011;63019;51.080;13.642;2023-05-29T03:50:28;6.35;;;3.40;;
74487;SDS011;63019;51.080;13.642;2023-05-29T03:51:29;6.32;;;3.10;;
74487;SDS011;63019;51.080;13.642;2023-05-29T03:52:32;10.10;;;3.38;;
74487;SDS011;63019;51.080;13.642;2023-05-29T03:53:33;7.35;;;3.08;;
74487;SDS011;63019;51.080;13.642;2023-05-29T03:54:35;9.20;;;3.47;;
74487;SDS011;63019;51.080;13.642;2023-05-29T03:55:37;8.82;;;3.00;;
74487;SDS011;63019;51.080;13.642;2023-05-29T03:56:39;7.50;;;3.20;;
74487;SDS011;63019;51.080;13.642;2023-05-29T03:57:41;7.13;;;3.10;;
74487;SDS011;63019;51.080;13.642;2023-05-29T03:58:43;8.48;;;3.15;;
74487;SDS011;63019;51.080;13.642;2023-05-29T03:59:45;6.20;;;3.38;;
74487;SDS011;63019;51.080;13.642;2023-05-29T04:00:47;7.93;;;3.50;;
74487;SDS011;63019;51.080;13.642;2023-05-29T04:01:48;16.35;;;3.17;;
74487;SDS011;63019;51.080;13.642;2023-05-29T04:02:50;6.68;;;2.80;;
74487;SDS011;63019;51.080;13.642;2023-05-29T04:03:53;6.97;;;3.17;;
74487;SDS011;63019;51.080;13.642;2023-05-29T04:04:55;11.27;;;2.90;;
74487;SDS011;63019;51.080;13.642;2023-05-29T04:05:57;6.57;;;2.92;;
74487;SDS011;63019;51.080;13.642;2023-05-29T04:06:58;5.03;;;2.60;;
74487;SDS011;63019;51.080;13.642;2023-05-29T04:08:01;6.13;;;3.13;;
74487;SDS011;63019;51.080;13.642;2023-05-29T04:09:16;7.70;;;3.17;;
74487;SDS011;63019;51.080;13.642;2023-05-29T04:10:18;6.57;;;3.00;;
74487;SDS011;63019;51.080;13.642;2023-05-29T04:11:19;4.80;;;2.50;;
74487;SDS011;63019;51.080;13.642;2023-05-29T04:12:22;10.13;;;3.05;;
74487;SDS011;63019;51.080;13.642;2023-05-29T04:13:24;5.03;;;2.60;;
74487;SDS011;63019;51.080;13.642;2023-05-29T04:14:26;4.82;;;2.70;;
74487;SDS011;63019;51.080;13.642;2023-05-29T04:15:27;5.32;;;2.40;;
74487;SDS011;63019;51.080;13.642;2023-05-29T04:16:29;5.25;;;2.70;;
74487;SDS011;63019;51.080;13.642;2023-05-29T04:17:31;6.63;;;2.50;;
74487;SDS011;63019;51.080;13.642;2023-05-29T04:18:33;8.40;;;3.15;;
74487;SDS011;63019;51.080;13.642;2023-05-29T04:19:35;7.43;;;2.65;;
74487;SDS011;63019;51.080;13.642;2023-05-29T04:20:37;6.00;;;2.42;;
74487;SDS011;63019;51.080;13.642;2023-05-29T04:21:39;5.22;;;2.45;;
74487;SDS011;63019;51.080;13.642;2023-05-29T04:22:41;8.50;;;2.78;;
74487;SDS011;63019;51.080;13.642;2023-05-29T04:23:42;6.22;;;2.80;;
74487;SDS011;63019;51.080;13.642;2023-05-29T04:24:44;5.97;;;2.50;;
74487;SDS011;63019;51.080;13.642;2023-05-29T04:25:47;4.78;;;2.65;;
74487;SDS011;63019;51.080;13.642;2023-05-29T04:26:52;8.98;;;2.80;;
74487;SDS011;63019;51.080;13.642;2023-05-29T04:27:54;7.27;;;2.67;;
74487;SDS011;63019;51.080;13.642;2023-05-29T04:28:56;7.15;;;2.80;;
74487;SDS011;63019;51.080;13.642;2023-05-29T04:30:00;5.70;;;2.65;;
74487;SDS011;63019;51.080;13.642;2023-05-29T04:31:03;4.90;;;2.60;;
74487;SDS011;63019;51.080;13.642;2023-05-29T04:32:06;6.60;;;2.50;;
74487;SDS011;63019;51.080;13.642;2023-05-29T04:33:09;4.10;;;2.50;;
74487;SDS011;63019;51.080;13.642;2023-05-29T04:34:13;7.22;;;3.58;;
74487;SDS011;63019;51.080;13.642;2023-05-29T04:35:17;7.47;;;2.85;;
74487;SDS011;63019;51.080;13.642;2023-05-29T04:36:21;7.55;;;2.80;;
74487;SDS011;63019;51.080;13.642;2023-05-29T04:37:26;5.07;;;3.05;;
74487;SDS011;63019;51.080;13.642;2023-05-29T04:38:31;9.50;;;3.10;;
74487;SDS011;63019;51.080;13.642;2023-05-29T04:39:33;9.80;;;3.05;;
74487;SDS011;63019;51.080;13.642;2023-05-29T04:40:35;5.57;;;3.00;;
74487;SDS011;63019;51.080;13.642;2023-05-29T04:41:38;6.05;;;3.17;;
74487;SDS011;63019;51.080;13.642;2023-05-29T04:42:41;6.32;;;3.00;;
74487;SDS011;63019;51.080;13.642;2023-05-29T04:43:43;9.93;;;2.60;;
74487;SDS011;63019;51.080;13.642;2023-05-29T04:44:46;7.82;;;2.97;;
74487;SDS011;63019;51.080;13.642;2023-05-29T04:45:48;3.90;;;2.65;;
74487;SDS011;63019;51.080;13.642;2023-05-29T04:46:52;7.95;;;2.85;;
74487;SDS011;63019;51.080;13.642;2023-05-29T04:47:54;9.30;;;3.17;;
74487;SDS011;63019;51.080;13.642;2023-05-29T04:48:56;7.87;;;3.23;;
74487;SDS011;63019;51.080;13.642;2023-05-29T04:49:59;6.28;;;3.05;;
74487;SDS011;63019;51.080;13.642;2023-05-29T04:51:01;7.40;;;3.30;;
74487;SDS011;63019;51.080;13.642;2023-05-29T04:52:03;6.15;;;2.92;;
74487;SDS011;63019;51.080;13.642;2023-05-29T04:53:06;6.03;;;3.05;;
74487;SDS011;63019;51.080;13.642;2023-05-29T04:54:08;7.60;;;3.28;;
74487;SDS011;63019;51.080;13.642;2023-05-29T04:55:11;6.20;;;2.80;;
74487;SDS011;63019;51.080;13.642;2023-05-29T04:56:13;6.88;;;3.10;;
74487;SDS011;63019;51.080;13.642;2023-05-29T04:57:15;5.60;;;3.10;;
74487;SDS011;63019;51.080;13.642;2023-05-29T04:58:17;4.95;;;2.65;;
74487;SDS011;63019;51.080;13.642;2023-05-29T04:59:19;6.93;;;2.87;;
74487;SDS011;63019;51.080;13.642;2023-05-29T05:00:21;6.72;;;3.13;;
74487;SDS011;63019;51.080;13.642;2023-05-29T05:01:24;6.47;;;2.75;;
74487;SDS011;63019;51.080;13.642;2023-05-29T05:02:26;8.40;;;3.05;;
74487;SDS011;63019;51.080;13.642;2023-05-29T05:03:29;5.38;;;2.58;;
74487;SDS011;63019;51.080;13.642;2023-05-29T05:04:32;5.38;;;2.90;;
74487;SDS011;63019;51.080;13.642;2023-05-29T05:05:34;5.85;;;2.50;;
74487;SDS011;63019;51.080;13.642;2023-05-29T05:06:36;6.30;;;2.72;;
74487;SDS011;63019;51.080;13.642;2023-05-29T05:07:39;5.97;;;2.70;;
74487;SDS011;63019;51.080;13.642;2023-05-29T05:08:41;8.13;;;3.20;;
74487;SDS011;63019;51.080;13.642;2023-05-29T05:09:42;7.13;;;2.70;;
74487;SDS011;63019;51.080;13.642;2023-05-29T05:10:44;8.55;;;3.00;;
74487;SDS011;63019;51.080;13.642;2023-05-29T05:11:46;5.72;;;3.03;;
74487;SDS011;63019;51.080;13.642;2023-05-29T05:12:48;6.15;;;2.97;;
74487;SDS011;63019;51.080;13.642;2023-05-29T05:13:50;7.68;;;2.63;;
74487;SDS011;63019;51.080;13.642;2023-05-29T05:14:52;5.93;;;2.80;;
74487;SDS011;63019;51.080;13.642;2023-05-29T05:15:53;8.63;;;3.10;;
74487;SDS011;63019;51.080;13.642;2023-05-29T05:16:55;6.45;;;3.13;;
74487;SDS011;63019;51.080;13.642;2023-05-29T05:17:57;5.57;;;2.65;;
74487;SDS011;63019;51.080;13.642;2023-05-29T05:18:59;6.47;;;2.90;;
74487;SDS011;63019;51.080;13.642;2023-05-29T05:20:01;8.93;;;3.13;;
74487;SDS011;63019;51.080;13.642;2023-05-29T05:21:04;6.05;;;3.42;;
74487;SDS011;63019;51.080;13.642;2023-05-29T05:22:07;6.03;;;3.08;;
74487;SDS011;63019;51.080;13.642;2023-05-29T05:23:09;9.95;;;3.60;;
74487;SDS011;63019;51.080;13.642;2023-05-29T05:24:11;6.80;;;3.10;;
74487;SDS011;63019;51.080;13.642;2023-05-29T05:25:13;8.75;;;3.50;;
74487;SDS011;63019;51.080;13.642;2023-05-29T05:26:15;6.50;;;3.72;;
74487;SDS011;63019;51.080;13.642;2023-05-29T05:27:17;8.55;;;3.22;;
74487;SDS011;63019;51.080;13.642;2023-05-29T05:28:19;8.10;;;3.35;;
74487;SDS011;63019;51.080;13.642;2023-05-29T05:29:21;5.78;;;3.10;;
74487;SDS011;63019;51.080;13.642;2023-05-29T05:30:23;9.27;;;3.10;;
74487;SDS011;63019;51.080;13.642;2023-05-29T05:31:24;9.15;;;3.15;;
74487;SDS011;63019;51.080;13.642;2023-05-29T05:32:26;6.68;;;3.20;;
74487;SDS011;63019;51.080;13.642;2023-05-29T05:33:28;6.60;;;3.20;;
74487;SDS011;63019;51.080;13.642;2023-05-29T05:34:30;9.55;;;3.97;;
74487;SDS011;63019;51.080;13.642;2023-05-29T05:35:32;10.05;;;3.55;;
74487;SDS011;63019;51.080;13.642;2023-05-29T05:36:34;7.20;;;3.42;;
74487;SDS011;63019;51.080;13.642;2023-05-29T05:37:37;6.53;;;3.20;;
74487;SDS011;63019;51.080;13.642;2023-05-29T05:38:39;7.45;;;3.53;;
74487;SDS011;63019;51.080;13.642;2023-05-29T05:39:41;6.15;;;3.45;;
74487;SDS011;63019;51.080;13.642;2023-05-29T05:40:43;6.87;;;3.43;;
74487;SDS011;63019;51.080;13.642;2023-05-29T05:41:46;7.68;;;3.75;;
74487;SDS011;63019;51.080;13.642;2023-05-29T05:42:48;8.20;;;3.47;;
74487;SDS011;63019;51.080;13.642;2023-05-29T05:43:49;5.35;;;3.28;;
74487;SDS011;63019;51.080;13.642;2023-05-29T05:44:52;6.85;;;3.45;;
74487;SDS011;63019;51.080;13.642;2023-05-29T05:45:54;7.53;;;3.50;;
74487;SDS011;63019;51.080;13.642;2023-05-29T05:46:56;7.93;;;3.40;;
74487;SDS011;63019;51.080;13.642;2023-05-29T05:47:58;11.73;;;3.42;;
74487;SDS011;63019;51.080;13.642;2023-05-29T05:49:00;8.75;;;3.60;;
74487;SDS011;63019;51.080;13.642;2023-05-29T05:50:02;9.57;;;3.63;;
74487;SDS011;63019;51.080;13.642;2023-05-29T05:51:04;8.83;;;3.40;;
74487;SDS011;63019;51.080;13.642;2023-05-29T05:52:06;9.00;;;3.00;;
74487;SDS011;63019;51.080;13.642;2023-05-29T05:53:08;9.88;;;3.85;;
74487;SDS011;63019;51.080;13.642;2023-05-29T05:54:09;9.35;;;3.65;;
74487;SDS011;63019;51.080;13.642;2023-05-29T05:55:11;8.80;;;3.53;;
74487;SDS011;63019;51.080;13.642;2023-05-29T05:56:13;12.73;;;3.50;;
74487;SDS011;63019;51.080;13.642;2023-05-29T05:57:15;10.15;;;3.40;;
74487;SDS011;63019;51.080;13.642;2023-05-29T05:58:17;6.28;;;3.55;;
74487;SDS011;63019;51.080;13.642;2023-05-29T05:59:19;6.60;;;3.42;;
74487;SDS011;63019;51.080;13.642;2023-05-29T06:00:22;9.27;;;3.40;;
74487;SDS011;63019;51.080;13.642;2023-05-29T06:01:24;5.53;;;3.13;;
74487;SDS011;63019;51.080;13.642;2023-05-29T06:02:26;7.63;;;3.42;;
74487;SDS011;63019;51.080;13.642;2023-05-29T06:03:28;9.88;;;3.38;;
74487;SDS011;63019;51.080;13.642;2023-05-29T06:04:31;6.88;;;3.30;;
74487;SDS011;63019;51.080;13.642;2023-05-29T06:05:33;8.57;;;3.83;;
74487;SDS011;63019;51.080;13.642;2023-05-29T06:06:37;7.13;;;3.35;;
74487;SDS011;63019;51.080;13.642;2023-05-29T06:07:39;10.75;;;3.30;;
74487;SDS011;63019;51.080;13.642;2023-05-29T06:08:41;11.10;;;4.00;;
74487;SDS011;63019;51.080;13.642;2023-05-29T06:09:44;6.80;;;3.50;;
74487;SDS011;63019;51.080;13.642;2023-05-29T06:10:46;6.30;;;3.05;;
74487;SDS011;63019;51.080;13.642;2023-05-29T06:11:47;7.70;;;3.70;;
74487;SDS011;63019;51.080;13.642;2023-05-29T06:12:49;7.40;;;3.30;;
74487;SDS011;63019;51.080;13.642;2023-05-29T06:13:51;9.05;;;3.10;;
74487;SDS011;63019;51.080;13.642;2023-05-29T06:14:53;8.80;;;3.42;;
74487;SDS011;63019;51.080;13.642;2023-05-29T06:15:55;6.15;;;3.22;;
74487;SDS011;63019;51.080;13.642;2023-05-29T06:16:57;9.38;;;3.88;;
74487;SDS011;63019;51.080;13.642;2023-05-29T06:17:59;8.88;;;3.25;;
74487;SDS011;63019;51.080;13.642;2023-05-29T06:19:01;6.43;;;2.85;;